Data for 10/10/2006

Time Sea-Level Adjusted Pressure Absolute Pressure Temperature Relative Humidity Dew Point   
(mb) (inHg) (mb) (inHg) (C) (F) (%) (C) (F)
00:05 1025 30.27 854 25.22 -0.2 31.6 80 -3.2 26.2
00:10 1025 30.27 854 25.22 -0.2 31.6 79 -3.3 26
00:15 1025 30.27 854 25.22 -0.1 31.7 79 -3.4 25.8
00:20 1025 30.27 854 25.22 -0.1 31.8 78 -3.4 25.9
00:25 1025 30.27 854 25.22 -0 31.9 77 -3.6 25.6
00:30 1025 30.27 854 25.22 0 32 77 -3.5 25.7
00:35 1025 30.27 854 25.22 -0 32 77 -3.5 25.6
00:40 1025 30.27 854 25.22 0.1 32.1 76 -3.7 25.4
00:45 1025 30.27 854 25.22 0 32.1 76 -3.7 25.4
00:50 1024 30.24 854 25.22 0 32 77 -3.6 25.5
00:55 1024 30.24 854 25.22 0 32 77 -3.6 25.6
01:00 1024 30.24 854 25.22 -0 32 77 -3.6 25.6
01:05 1024 30.24 853 25.19 -0 32 76 -3.7 25.3
01:10 1024 30.24 853 25.19 0 32 76 -3.7 25.4
01:15 1024 30.24 854 25.22 -0 32 76 -3.7 25.3
01:20 1024 30.24 853 25.19 -0 32 76 -3.7 25.3
01:25 1024 30.24 853 25.19 0 32 76 -3.8 25.2
01:30 1024 30.24 853 25.19 -0 32 76 -3.8 25.1
01:35 1024 30.24 853 25.19 0 32 75 -3.9 25.1
01:40 1024 30.24 854 25.22 0 32 75 -3.9 25
01:45 1024 30.24 854 25.22 0 32.1 75 -3.9 25
01:50 1024 30.24 853 25.19 0 32.1 75 -3.9 25
01:55 1024 30.24 853 25.19 0 32 75 -4 24.9
02:00 1024 30.24 853 25.19 0.1 32.1 75 -3.9 25.1
02:05 1024 30.24 853 25.19 0 32 75 -3.9 25.1
02:10 1024 30.24 853 25.19 0 32.1 76 -3.8 25.2
02:15 1024 30.24 853 25.19 -0 32 76 -3.8 25.2
02:20 1024 30.24 853 25.19 -0.1 31.9 76 -3.7 25.3
02:25 1024 30.24 853 25.19 -0.1 31.9 76 -3.8 25.2
02:30 1024 30.24 853 25.19 -0.2 31.7 76 -3.8 25.1
02:35 1024 30.24 853 25.19 -0.2 31.6 77 -3.8 25.2
02:40 1024 30.24 853 25.19 -0.3 31.5 77 -3.8 25.1
02:45 1024 30.24 853 25.19 -0.4 31.3 77 -4 24.8
02:50 1024 30.24 853 25.19 -0.5 31.1 77 -3.9 24.9
02:55 1024 30.24 853 25.19 -0.6 31 78 -4 24.7
03:00 1024 30.24 853 25.19 -0.7 30.7 78 -4.1 24.7
03:05 1024 30.24 853 25.19 -0.7 30.7 79 -4 24.8
03:10 1024 30.24 853 25.19 -0.8 30.5 79 -4.1 24.6
03:15 1024 30.24 853 25.19 -0.9 30.4 79 -4 24.8
03:20 1024 30.24 853 25.19 -1 30.3 80 -4 24.8
03:25 1024 30.24 853 25.19 -1 30.2 80 -3.9 24.9
03:30 1023 30.21 853 25.19 -1.1 30.1 81 -4 24.9
03:35 1023 30.21 853 25.19 -1 30.2 80 -4 24.8
03:40 1023 30.21 853 25.19 -1.1 30.1 80 -4 24.8
03:45 1023 30.21 853 25.19 -1.1 30.1 80 -4.1 24.7
03:50 1023 30.21 853 25.19 -1.1 30.1 80 -4.1 24.6
03:55 1023 30.21 853 25.19 -1.2 29.9 81 -4 24.8
04:00 1023 30.21 853 25.19 -1.3 29.7 81 -4 24.7
04:05 1023 30.21 853 25.19 -1.2 29.8 82 -4 24.9
04:10 1023 30.21 852 25.16 -1.4 29.5 83 -3.9 24.9
04:15 1023 30.21 852 25.16 -1.4 29.5 82 -4.1 24.6
04:20 1023 30.21 852 25.16 -1.1 30.1 81 -3.9 24.9
04:25 1023 30.21 852 25.16 -1.1 30.1 82 -3.7 25.3
04:30 1023 30.21 852 25.16 -1.1 30 82 -3.8 25.2
04:35 1023 30.21 852 25.16 -1.3 29.6 83 -3.9 25
04:40 1023 30.21 852 25.16 -1.7 29 84 -4.1 24.7
04:45 1023 30.21 852 25.16 -1.6 29.1 84 -4 24.8
04:50 1023 30.21 852 25.16 -1.8 28.8 85 -4 24.7
04:55 1023 30.21 852 25.16 -1.9 28.5 85 -4.1 24.7
05:00 1023 30.21 852 25.16 -2.1 28.2 86 -4.1 24.7
05:05 1023 30.21 852 25.16 -2.3 27.8 88 -4.1 24.6
05:10 1023 30.21 852 25.16 -2.3 27.9 87 -4.2 24.4
05:15 1023 30.21 852 25.16 -2.1 28.3 85 -4.3 24.3
05:20 1023 30.21 852 25.16 -1.9 28.6 84 -4.3 24.2
05:25 1023 30.21 852 25.16 -1.8 28.8 83 -4.2 24.4
05:30 1023 30.21 852 25.16 -1.9 28.6 84 -4.3 24.3
05:35 1023 30.21 852 25.16 -1.9 28.5 84 -4.3 24.2
05:40 1023 30.21 852 25.16 -1.9 28.7 84 -4.3 24.3
05:45 1023 30.21 852 25.16 -1.7 29 82 -4.3 24.3
05:50 1023 30.21 852 25.16 -1.7 28.9 83 -4.3 24.3
05:55 1023 30.21 852 25.16 -1.7 29 82 -4.3 24.2
06:00 1023 30.21 852 25.16 -2 28.4 85 -4.3 24.3
06:05 1023 30.21 852 25.16 -1.7 28.9 82 -4.4 24
06:10 1023 30.21 852 25.16 -1.5 29.4 81 -4.3 24.2
06:15 1023 30.21 852 25.16 -1.8 28.8 82 -4.5 24
06:20 1023 30.21 852 25.16 -2.2 28 83 -4.7 23.6
06:25 1023 30.21 852 25.16 -2.4 27.7 84 -4.7 23.6
06:30 1023 30.21 852 25.16 -2.5 27.4 85 -4.7 23.5
06:35 1023 30.21 852 25.16 -2.8 26.9 85 -5 23.1
06:40 1023 30.21 852 25.16 -3 26.5 86 -5.1 22.9
06:45 1023 30.21 852 25.16 -3 26.7 86 -5 23
06:50 1023 30.21 852 25.16 -2.6 27.3 85 -4.8 23.3
06:55 1023 30.21 852 25.16 -2.4 27.6 84 -4.8 23.4
07:00 1023 30.21 852 25.16 -2.3 27.8 84 -4.7 23.5
07:05 1023 30.21 852 25.16 -2.4 27.8 84 -4.7 23.5
07:10 1023 30.21 852 25.16 -2.4 27.7 84 -4.8 23.4
07:15 1023 30.21 852 25.16 -2.3 27.8 85 -4.6 23.7
07:20 1023 30.21 852 25.16 -2.2 28.1 84 -4.5 23.8
07:25 1023 30.21 852 25.16 -2.2 28.1 83 -4.7 23.6
07:30 1023 30.21 852 25.16 -2.4 27.8 84 -4.7 23.5
07:35 1023 30.21 852 25.16 -2.3 27.9 83 -4.7 23.5
07:40 1023 30.21 852 25.16 -2.1 28.2 82 -4.8 23.4
07:45 1023 30.21 852 25.16 -1.8 28.8 80 -4.7 23.5
07:50 1023 30.21 852 25.16 -1.7 29 80 -4.7 23.5
07:55 1023 30.21 852 25.16 -1.5 29.3 79 -4.6 23.6
08:00 1023 30.21 852 25.16 -1.4 29.5 79 -4.6 23.7
08:05 1023 30.21 852 25.16 -1.2 29.8 78 -4.6 23.7
08:10 1023 30.21 852 25.16 -0.9 30.4 76 -4.6 23.8
08:15 1023 30.21 852 25.16 -0.8 30.5 76 -4.6 23.7
08:20 1023 30.21 852 25.16 -0.2 31.7 73 -4.5 23.9
08:25 1023 30.21 852 25.16 0.2 32.4 72 -4.3 24.3
08:30 1023 30.21 852 25.16 0.4 32.8 70 -4.3 24.2
08:35 1023 30.21 852 25.16 0.8 33.4 69 -4.3 24.3
08:40 1023 30.21 852 25.16 1.3 34.3 68 -4.1 24.7
08:45 1023 30.21 852 25.16 1.4 34.5 68 -3.9 24.9
08:50 1023 30.21 852 25.16 1.8 35.2 66 -4 24.9
08:55 1023 30.21 852 25.16 1.7 35.1 67 -3.8 25.2
09:00 1023 30.21 852 25.16 1.6 35 67 -3.9 25
09:05 1023 30.21 852 25.16 2 35.6 64 -4 24.8
09:10 1023 30.21 852 25.16 1.9 35.4 68 -3.4 26
09:15 1023 30.21 852 25.16 1.6 34.9 69 -3.5 25.7
09:20 1023 30.21 852 25.16 1.7 35.1 69 -3.3 26
09:25 1023 30.21 852 25.16 1.9 35.4 68 -3.4 25.9
09:30 1023 30.21 852 25.16 2 35.7 68 -3.3 26
09:35 1023 30.21 852 25.16 2.1 35.8 66 -3.7 25.4
09:40 1023 30.21 852 25.16 2.2 36 67 -3.2 26.3
09:45 1023 30.21 852 25.16 3.2 37.8 60 -3.7 25.3
09:50 1023 30.21 852 25.16 4.2 39.6 57 -3.6 25.5
09:55 1023 30.21 852 25.16 4.5 40.1 58 -3 26.5
10:00 1023 30.21 852 25.16 4.8 40.6 55 -3.4 25.9
10:05 1023 30.21 852 25.16 4.5 40.2 58 -3 26.5
10:10 1023 30.21 852 25.16 4.5 40.1 59 -2.9 26.8
10:15 1023 30.21 852 25.16 4 39.3 59 -3.2 26.2
10:20 1023 30.21 852 25.16 4 39.2 59 -3.3 26
10:25 1023 30.21 852 25.16 4 39.2 59 -3.3 26.1
10:30 1023 30.21 852 25.16 4.3 39.8 58 -3.1 26.3
10:35 1023 30.21 852 25.16 4.7 40.5 56 -3.2 26.2
10:40 1022 30.18 852 25.16 4.4 39.9 58 -3.1 26.5
10:45 1023 30.21 852 25.16 4.2 39.5 57 -3.6 25.6
10:50 1023 30.21 852 25.16 4.9 40.8 57 -3 26.7
10:55 1022 30.18 852 25.16 5.1 41.2 55 -3.1 26.5
11:00 1022 30.18 852 25.16 5.2 41.4 56 -3 26.7
11:05 1022 30.18 852 25.16 5.7 42.3 53 -3.2 26.3
11:10 1022 30.18 852 25.16 6 42.8 51 -3.4 25.8
11:15 1023 30.21 852 25.16 6.1 42.9 52 -3.1 26.4
11:20 1023 30.21 852 25.16 5.8 42.4 49 -4 24.8
11:25 1022 30.18 852 25.16 6.2 43.2 50 -3.3 26
11:30 1022 30.18 852 25.16 6.5 43.7 48 -3.8 25.1
11:35 1022 30.18 852 25.16 6.9 44.3 45 -4.1 24.6
11:40 1022 30.18 852 25.16 6.8 44.2 47 -3.7 25.3
11:45 1022 30.18 852 25.16 6.3 43.3 50 -3.4 25.9
11:50 1022 30.18 852 25.16 6.2 43.1 48 -4.1 24.7
11:55 1022 30.18 852 25.16 6.9 44.3 47 -3.7 25.4
12:00 1022 30.18 852 25.16 6.4 43.6 50 -3.1 26.4
12:05 1022 30.18 852 25.16 6.6 43.9 47 -3.8 25.2
12:10 1022 30.18 852 25.16 6.9 44.4 47 -3.5 25.6
12:15 1022 30.18 852 25.16 6.8 44.3 47 -3.8 25.2
12:20 1022 30.18 852 25.16 7 44.6 47 -3.5 25.7
12:25 1023 30.21 852 25.16 7.1 44.7 47 -3.5 25.7
12:30 1022 30.18 852 25.16 7 44.5 47 -3.7 25.4
12:35 1022 30.18 852 25.16 6.1 43 51 -3.2 26.2
12:40 1023 30.21 852 25.16 6.4 43.5 49 -3.6 25.5
12:45 1022 30.18 852 25.16 7.2 45 47 -3.3 26
12:50 1022 30.18 852 25.16 7.5 45.5 47 -3 26.5
12:55 1022 30.18 852 25.16 7.4 45.3 47 -3.1 26.4
13:00 1022 30.18 852 25.16 7.6 45.7 47 -3.1 26.5
13:05 1022 30.18 851 25.13 7.4 45.3 47 -3.1 26.4
13:10 1022 30.18 851 25.13 7.3 45.1 48 -3 26.6
13:15 1022 30.18 851 25.13 7.5 45.5 47 -3.2 26.2
13:20 1022 30.18 851 25.13 7.5 45.4 48 -2.9 26.8
13:25 1022 30.18 851 25.13 7.6 45.7 47 -2.9 26.8
13:30 1022 30.18 851 25.13 7.8 46 47 -2.8 26.9
13:35 1022 30.18 851 25.13 7.9 46.2 48 -2.4 27.8
13:40 1022 30.18 851 25.13 7.9 46.2 47 -2.6 27.3
13:45 1022 30.18 851 25.13 8 46.3 46 -2.9 26.8
13:50 1022 30.18 851 25.13 7.3 45.1 49 -2.8 26.9
13:55 1022 30.18 851 25.13 7.4 45.4 45 -3.6 25.5
14:00 1022 30.18 851 25.13 7.5 45.5 48 -2.9 26.7
14:05 1022 30.18 851 25.13 7.2 44.9 49 -2.7 27.1
14:10 1022 30.18 851 25.13 7.1 44.7 49 -2.8 26.9
14:15 1022 30.18 851 25.13 7.1 44.8 48 -3.2 26.3
14:20 1022 30.18 851 25.13 7.7 45.8 47 -2.8 27
14:25 1022 30.18 851 25.13 8 46.3 46 -3 26.7
14:30 1022 30.18 851 25.13 7.6 45.6 48 -2.7 27.1
14:35 1022 30.18 851 25.13 7.7 45.9 46 -3.2 26.2
14:40 1022 30.18 851 25.13 7.7 45.8 47 -2.8 27
14:45 1022 30.18 851 25.13 7.4 45.2 48 -2.9 26.9
14:50 1022 30.18 851 25.13 7.5 45.5 48 -2.9 26.8
14:55 1022 30.18 851 25.13 7.5 45.4 48 -2.7 27.1
15:00 1022 30.18 851 25.13 7.5 45.5 49 -2.5 27.4
15:05 1022 30.18 851 25.13 7.6 45.7 48 -2.7 27.1
15:10 1022 30.18 851 25.13 7.6 45.7 49 -2.4 27.6
15:15 1022 30.18 851 25.13 7 44.5 49 -2.9 26.8
15:20 1022 30.18 851 25.13 7.5 45.4 47 -3 26.5
15:25 1021 30.15 851 25.13 7.5 45.6 48 -2.8 27
15:30 1021 30.15 850 25.1 7.6 45.7 48 -2.6 27.3
15:35 1021 30.15 850 25.1 7.7 45.8 48 -2.6 27.4
15:40 1021 30.15 850 25.1 7.3 45.2 49 -2.6 27.3
15:45 1021 30.15 851 25.13 7.7 45.9 48 -2.7 27.2
15:50 1021 30.15 850 25.1 7.9 46.2 47 -2.7 27.1
15:55 1021 30.15 851 25.13 7.8 46.1 48 -2.5 27.5
16:00 1021 30.15 851 25.13 7.7 45.9 49 -2.4 27.7
16:05 1021 30.15 850 25.1 7.6 45.6 50 -2.3 27.9
16:10 1021 30.15 850 25.1 7.7 45.9 48 -2.7 27.1
16:15 1021 30.15 850 25.1 7.8 46 49 -2.3 27.9
16:20 1021 30.15 850 25.1 8.1 46.5 48 -2.2 28
16:25 1021 30.15 850 25.1 8.5 47.3 47 -2.1 28.2
16:30 1021 30.15 850 25.1 8.3 47 49 -1.8 28.8
16:35 1021 30.15 850 25.1 7.8 46.1 49 -2.1 28.2
16:40 1021 30.15 850 25.1 7 44.6 52 -2 28.4
16:45 1021 30.15 850 25.1 6.7 44.1 52 -2.4 27.7
16:50 1021 30.15 850 25.1 7.8 46.1 49 -2.2 28
16:55 1021 30.15 850 25.1 8 46.4 51 -1.5 29.3
17:00 1021 30.15 851 25.13 7.4 45.2 52 -2 28.5
17:05 1021 30.15 851 25.13 7.4 45.3 52 -1.8 28.7
17:10 1021 30.15 850 25.1 6.6 43.9 53 -2.2 28
17:15 1021 30.15 850 25.1 6.7 44.1 53 -2.2 28
17:20 1021 30.15 850 25.1 7.5 45.4 50 -2.1 28.1
17:25 1021 30.15 850 25.1 7.5 45.4 51 -1.9 28.6
17:30 1021 30.15 850 25.1 6.8 44.3 52 -2.3 27.9
17:35 1021 30.15 850 25.1 7 44.7 52 -2.1 28.2
17:40 1021 30.15 850 25.1 7.1 44.7 52 -2.1 28.2
17:45 1021 30.15 850 25.1 6.9 44.4 54 -1.9 28.6
17:50 1021 30.15 850 25.1 6.4 43.4 55 -2.1 28.2
17:55 1021 30.15 850 25.1 6.2 43.2 55 -2.1 28.2
18:00 1021 30.15 850 25.1 6.7 44.1 53 -2.2 28
18:05 1021 30.15 850 25.1 6.6 43.9 54 -2 28.3
18:10 1021 30.15 850 25.1 6.6 43.9 52 -2.6 27.3
18:15 1021 30.15 850 25.1 6.9 44.3 50 -2.8 27
18:20 1021 30.15 850 25.1 6.9 44.3 50 -2.7 27.1
18:25 1021 30.15 850 25.1 6.7 44 51 -2.6 27.3
18:30 1021 30.15 850 25.1 6.6 43.9 52 -2.4 27.6
18:35 1021 30.15 850 25.1 5.9 42.7 54 -2.6 27.3
18:40 1021 30.15 850 25.1 5.8 42.4 55 -2.6 27.4
18:45 1020 30.12 850 25.1 6.1 42.9 54 -2.6 27.4
18:50 1020 30.12 850 25.1 6.2 43.2 53 -2.5 27.5
18:55 1020 30.12 850 25.1 6.2 43.1 54 -2.6 27.4
19:00 1020 30.12 850 25.1 6.2 43.2 54 -2.5 27.5
19:05 1020 30.12 850 25.1 6.4 43.6 53 -2.5 27.5
19:10 1020 30.12 850 25.1 6.4 43.5 52 -2.7 27.1
19:15 1020 30.12 850 25.1 6.1 43 54 -2.5 27.5
19:20 1020 30.12 850 25.1 6.3 43.3 52 -2.8 27
19:25 1020 30.12 850 25.1 6.3 43.3 52 -2.9 26.9
19:30 1020 30.12 850 25.1 6.3 43.3 54 -2.4 27.6
19:35 1020 30.12 850 25.1 6.5 43.7 52 -2.7 27.2
19:40 1021 30.15 850 25.1 6.7 44.1 52 -2.4 27.7
19:45 1021 30.15 850 25.1 6.9 44.4 52 -2.4 27.7
19:50 1021 30.15 850 25.1 6.7 44.1 53 -2.3 27.9
19:55 1021 30.15 850 25.1 6.5 43.7 53 -2.3 27.8
20:00 1021 30.15 850 25.1 6.3 43.4 54 -2.4 27.7
20:05 1021 30.15 850 25.1 6.2 43.2 56 -2 28.4
20:10 1021 30.15 850 25.1 6.1 42.9 58 -1.5 29.3
20:15 1021 30.15 850 25.1 5.7 42.3 61 -1.2 29.9
20:20 1021 30.15 850 25.1 5.5 41.8 61 -1.5 29.4
20:25 1021 30.15 850 25.1 5.3 41.6 65 -0.7 30.7
20:30 1021 30.15 850 25.1 5.2 41.3 68 -0.3 31.4
20:35 1021 30.15 850 25.1 5.1 41.1 66 -0.6 30.8
20:40 1021 30.15 850 25.1 5.1 41.2 67 -0.5 31.1
20:45 1021 30.15 850 25.1 5 41 67 -0.5 31.1
20:50 1021 30.15 850 25.1 5 41 66 -0.8 30.6
20:55 1021 30.15 850 25.1 5.1 41.2 63 -1.3 29.6
21:00 1021 30.15 850 25.1 5.2 41.4 63 -1.2 29.9
21:05 1021 30.15 850 25.1 5.3 41.5 64 -0.9 30.4
21:10 1021 30.15 850 25.1 5.2 41.3 68 -0.2 31.6
21:15 1021 30.15 850 25.1 5.1 41.2 66 -0.8 30.6
21:20 1021 30.15 850 25.1 5.3 41.5 66 -0.5 31.1
21:25 1021 30.15 850 25.1 5.4 41.7 66 -0.5 31.1
21:30 1021 30.15 850 25.1 5.4 41.8 64 -0.7 30.7
21:35 1021 30.15 850 25.1 5.5 41.8 64 -0.7 30.7
21:40 1021 30.15 850 25.1 5.5 41.9 66 -0.4 31.3
21:45 1021 30.15 850 25.1 5.5 41.8 66 -0.3 31.4
21:50 1021 30.15 850 25.1 5.5 42 67 -0.2 31.7
21:55 1021 30.15 850 25.1 5.4 41.7 71 0.5 32.9
22:00 1021 30.15 850 25.1 5.2 41.3 72 0.6 33.2
22:05 1021 30.15 850 25.1 5.1 41.2 72 0.6 33
22:10 1021 30.15 850 25.1 5.1 41.2 73 0.8 33.4
22:15 1021 30.15 850 25.1 5.1 41.1 73 0.6 33.1
22:20 1021 30.15 850 25.1 5.1 41.1 74 0.8 33.4
22:25 1021 30.15 850 25.1 5.2 41.3 73 0.7 33.3
22:30 1021 30.15 850 25.1 5.3 41.5 73 0.7 33.3
22:35 1021 30.15 850 25.1 5.5 42 71 0.7 33.2
22:40 1021 30.15 850 25.1 5.7 42.3 70 0.6 33.1
22:45 1021 30.15 850 25.1 5.7 42.2 70 0.7 33.2
22:50 1021 30.15 850 25.1 5.8 42.4 69 0.6 33.1
22:55 1021 30.15 850 25.1 5.7 42.3 69 0.6 33
23:00 1021 30.15 850 25.1 5.6 42.1 70 0.6 33
23:05 1021 30.15 850 25.1 5.6 42.1 70 0.6 33.2
23:10 1021 30.15 850 25.1 5.6 42.1 70 0.5 32.9
23:15 1021 30.15 850 25.1 5.7 42.2 71 0.8 33.4
23:20 1021 30.15 850 25.1 5.9 42.6 68 0.5 32.9
23:25 1021 30.15 850 25.1 6 42.9 68 0.7 33.2
23:30 1021 30.15 850 25.1 5.8 42.4 70 0.8 33.4
23:35 1021 30.15 850 25.1 5.8 42.4 70 0.7 33.2
23:40 1021 30.15 850 25.1 5.8 42.4 70 0.8 33.4
23:45 1021 30.15 850 25.1 5.9 42.7 70 0.9 33.6
23:50 1021 30.15 850 25.1 5.8 42.5 71 0.9 33.6
23:55 1021 30.15 850 25.1 5.8 42.4 70 0.8 33.5
24:00 1021 30.15 850 25.1 5.7 42.3 70 0.7 33.3